Time;durP1;ratioP1;P1;durP2;ratioP2;P2;SDS_P1;SDS_P2;PMS_P1;PMS_P2;Temp;Humidity;BMP_temperature;BMP_pressure;BME280_temperature;BME280_humidity;BME280_pressure;Samples;Min_cycle;Max_cycle;Signal;HPM_P1;HPM_P2
2021/03/07 00:00:13;;;;;;;;;15.40;13.90;;;;;-2.64;72.61;100556.02;489327;110;379234;-53
2021/03/07 00:01:17;;;;;;;;;16.20;12.10;;;;;-2.64;72.61;100556.02;489422;110;380395;-55
2021/03/07 00:02:22;;;;;;;;;15.10;12.30;;;;;-2.68;72.73;100560.39;487965;110;378487;-53
2021/03/07 00:03:26;;;;;;;;;17.80;10.80;;;;;-2.60;72.34;100549.95;489040;110;379037;-53
2021/03/07 00:04:31;;;;;;;;;14.90;11.90;;;;;-2.61;72.46;100554.21;488938;110;384808;-53
2021/03/07 00:05:35;;;;;;;;;15.00;12.90;;;;;-2.66;72.70;100552.65;483943;110;385970;-54
2021/03/07 00:06:39;;;;;;;;;14.60;12.10;;;;;-2.66;72.69;100547.52;490852;110;378661;-52
2021/03/07 00:07:44;;;;;;;;;17.60;14.00;;;;;-2.66;72.69;100547.52;481386;112;380316;-53
2021/03/07 00:08:48;;;;;;;;;15.40;12.50;;;;;-2.68;72.74;100547.55;476730;113;378627;-52
2021/03/07 00:09:56;;;;;;;;;18.30;15.80;;;;;-2.69;72.64;100540.73;480448;111;382573;-53
2021/03/07 00:11:01;;;;;;;;;16.70;13.40;;;;;-2.71;73.00;100539.09;485709;111;387976;-54
2021/03/07 00:12:05;;;;;;;;;18.60;14.30;;;;;-2.70;73.26;100536.48;488506;110;382950;-54
2021/03/07 00:13:10;;;;;;;;;14.80;13.50;;;;;-2.70;73.26;100536.48;488657;110;380812;-54
2021/03/07 00:14:14;;;;;;;;;17.00;14.20;;;;;-2.71;73.00;100533.95;485326;110;381416;-53
2021/03/07 00:15:19;;;;;;;;;15.60;14.90;;;;;-2.70;72.62;100536.48;489279;110;377704;-54
2021/03/07 00:16:23;;;;;;;;;20.10;16.10;;;;;-2.68;71.79;100533.88;487822;110;381877;-52
2021/03/07 00:17:27;;;;;;;;;18.60;12.80;;;;;-2.71;73.09;100529.66;489351;110;381124;-55
2021/03/07 00:18:32;;;;;;;;;20.60;13.90;;;;;-2.71;73.09;100529.66;489041;110;382413;-53
2021/03/07 00:19:37;;;;;;;;;12.70;11.80;;;;;-2.78;74.11;100523.84;489165;110;376464;-54
2021/03/07 00:20:41;;;;;;;;;13.40;10.30;;;;;-2.79;74.36;100518.75;480858;112;376206;-54
2021/03/07 00:21:45;;;;;;;;;21.60;16.10;;;;;-2.79;74.36;100518.75;485615;110;380800;-54
2021/03/07 00:22:50;;;;;;;;;15.80;12.60;;;;;-2.82;74.69;100522.21;489066;110;381337;-53
2021/03/07 00:23:54;;;;;;;;;18.40;14.40;;;;;-2.89;75.24;100522.41;489057;110;380902;-54
2021/03/07 00:24:58;;;;;;;;;15.50;12.40;;;;;-2.89;75.24;100522.41;486439;110;381691;-54
2021/03/07 00:26:03;;;;;;;;;14.30;12.90;;;;;-2.86;75.33;100518.04;484583;111;378299;-53
2021/03/07 00:27:07;;;;;;;;;18.80;16.00;;;;;-2.89;75.49;100517.27;484082;111;382981;-53
2021/03/07 00:28:11;;;;;;;;;18.90;15.70;;;;;-2.89;75.54;100510.42;482073;111;382287;-54
2021/03/07 00:29:16;;;;;;;;;19.30;15.10;;;;;-2.88;75.25;100506.97;489321;110;381503;-54
2021/03/07 00:30:21;;;;;;;;;19.70;15.80;;;;;-2.89;76.15;100510.42;489005;110;383796;-58
2021/03/07 00:31:25;;;;;;;;;18.10;14.00;;;;;-2.91;76.13;100504.48;488723;110;380996;-55
2021/03/07 00:32:30;;;;;;;;;12.70;11.40;;;;;-2.91;76.13;100504.48;488907;110;382458;-55
2021/03/07 00:33:36;;;;;;;;;14.70;12.30;;;;;-2.89;76.37;100507.02;486080;110;386752;-56
2021/03/07 00:34:40;;;;;;;;;14.80;10.50;;;;;-2.89;76.14;100504.45;489230;110;377351;-54
2021/03/07 00:35:45;;;;;;;;;19.20;14.50;;;;;-2.94;76.55;100506.29;481632;111;386011;-53
2021/03/07 00:36:49;;;;;;;;;17.90;14.60;;;;;-2.92;76.58;100495.10;488934;110;381682;-54
2021/03/07 00:37:53;;;;;;;;;12.20;11.70;;;;;-2.91;76.70;100491.66;488108;110;382426;-54
2021/03/07 00:38:58;;;;;;;;;15.80;14.80;;;;;-2.96;77.23;100488.36;487484;110;381868;-53
2021/03/07 00:40:05;;;;;;;;;11.00;10.50;;;;;-2.96;77.23;100488.36;484117;111;378218;-54
2021/03/07 00:41:10;;;;;;;;;23.40;17.80;;;;;-2.90;76.16;100493.34;487945;110;382814;-54
2021/03/07 00:42:14;;;;;;;;;21.70;15.70;;;;;-2.90;76.16;100493.34;479176;112;381304;-53
2021/03/07 00:43:18;;;;;;;;;18.60;16.00;;;;;-3.02;77.61;100477.39;485329;112;383455;-54
2021/03/07 00:44:22;;;;;;;;;13.60;11.40;;;;;-3.02;77.61;100477.39;486083;111;382684;-53
2021/03/07 00:45:27;;;;;;;;;20.70;16.60;;;;;-3.05;78.03;100480.87;488006;110;382367;-54
2021/03/07 00:46:31;;;;;;;;;18.40;16.60;;;;;-3.05;78.13;100480.87;486463;110;381260;-54
2021/03/07 00:47:36;;;;;;;;;17.10;15.70;;;;;-3.03;78.32;100475.70;487312;110;382012;-51
2021/03/07 00:48:40;;;;;;;;;18.10;12.60;;;;;-3.02;78.31;100475.66;488523;110;388607;-53
2021/03/07 00:49:45;;;;;;;;;20.30;16.40;;;;;-3.02;78.31;100475.66;482819;111;383243;-55
2021/03/07 00:50:50;;;;;;;;;24.90;20.80;;;;;-3.02;78.46;100467.13;489837;110;383505;-53
2021/03/07 00:51:54;;;;;;;;;19.10;16.10;;;;;-3.02;78.46;100467.13;488948;110;381802;-53
2021/03/07 00:52:58;;;;;;;;;21.00;15.80;;;;;-3.04;78.42;100471.45;488924;110;379331;-53
2021/03/07 00:54:03;;;;;;;;;20.60;19.70;;;;;-3.04;78.72;100466.32;488885;110;383405;-54
2021/03/07 00:55:08;;;;;;;;;23.00;19.20;;;;;-3.08;78.90;100458.70;488709;110;385893;-53
2021/03/07 00:56:12;;;;;;;;;20.60;18.00;;;;;-3.03;78.09;100456.02;482316;112;382546;-55
2021/03/07 00:57:17;;;;;;;;;21.90;15.30;;;;;-3.06;79.23;100445.84;484607;110;382987;-54
2021/03/07 00:58:21;;;;;;;;;17.80;15.90;;;;;-3.10;79.33;100450.20;486926;110;381191;-54
2021/03/07 00:59:25;;;;;;;;;24.70;20.70;;;;;-3.10;79.33;100450.20;484368;110;384889;-54
2021/03/07 01:00:30;;;;;;;;;11.30;8.90;;;;;-3.04;78.70;100446.64;488270;110;375797;-54
2021/03/07 01:01:34;;;;;;;;;23.60;17.80;;;;;-3.08;79.14;100439.91;489796;110;382107;-53
2021/03/07 01:02:38;;;;;;;;;20.70;17.50;;;;;-3.01;78.38;100433.73;488249;110;382115;-54
2021/03/07 01:03:43;;;;;;;;;20.30;17.80;;;;;-3.10;79.50;100434.81;482425;112;382245;-54
2021/03/07 01:04:47;;;;;;;;;16.90;12.50;;;;;-3.10;79.50;100434.81;488108;110;380901;-53
2021/03/07 01:05:51;;;;;;;;;25.60;21.00;;;;;-3.08;79.42;100438.18;478715;112;382309;-53
2021/03/07 01:06:57;;;;;;;;;25.60;18.60;;;;;-3.09;79.59;100436.50;479133;111;390164;-56
2021/03/07 01:08:01;;;;;;;;;22.00;18.50;;;;;-3.09;79.59;100436.50;490406;110;383547;-53
2021/03/07 01:09:05;;;;;;;;;15.40;11.40;;;;;-3.07;79.49;100432.16;487617;110;378342;-54
2021/03/07 01:10:12;;;;;;;;;22.50;17.80;;;;;-3.07;79.54;100432.16;488972;110;383406;-54
2021/03/07 01:11:16;;;;;;;;;24.20;19.30;;;;;-3.08;79.75;100433.05;484178;111;383045;-53
2021/03/07 01:12:21;;;;;;;;;16.10;14.70;;;;;-3.07;79.69;100427.03;488994;110;381093;-53
2021/03/07 01:13:25;;;;;;;;;11.10;9.60;;;;;-3.10;79.88;100423.71;489103;110;377398;-53
2021/03/07 01:14:29;;;;;;;;;21.70;18.10;;;;;-3.10;79.88;100423.71;490149;110;382450;-53
2021/03/07 01:15:34;;;;;;;;;23.30;18.00;;;;;-3.08;79.78;100427.08;488257;110;383529;-53
2021/03/07 01:16:42;;;;;;;;;23.80;12.80;;;;;-3.08;79.58;100417.66;488071;110;383321;-54
2021/03/07 01:17:45;;;;;;;;;16.20;14.60;;;;;-3.13;79.93;100413.53;486465;110;381317;-53
2021/03/07 01:18:50;;;;;;;;;20.10;17.20;;;;;-3.13;79.74;100416.94;488006;110;382969;-53
2021/03/07 01:19:54;;;;;;;;;19.40;15.90;;;;;-3.15;79.98;100417.86;484516;112;379887;-53
2021/03/07 01:20:58;;;;;;;;;20.10;15.80;;;;;-3.14;80.04;100404.15;467730;114;382546;-53
2021/03/07 01:22:03;;;;;;;;;13.00;11.00;;;;;-3.11;80.05;100404.91;483880;110;377593;-54
2021/03/07 01:23:07;;;;;;;;;21.10;17.60;;;;;-3.11;80.00;100407.48;483419;110;380723;-53
2021/03/07 01:24:12;;;;;;;;;22.20;18.30;;;;;-3.12;80.18;100410.08;479229;112;383061;-54
2021/03/07 01:25:17;;;;;;;;;25.60;18.50;;;;;-3.12;80.18;100410.08;477259;113;387989;-55
2021/03/07 01:26:22;;;;;;;;;18.70;15.60;;;;;-3.04;79.50;100402.19;476507;113;384964;-55
2021/03/07 01:27:26;;;;;;;;;13.30;11.00;;;;;-3.04;79.50;100402.19;483616;110;376995;-54
2021/03/07 01:28:31;;;;;;;;;15.60;9.80;;;;;-3.01;79.25;100395.24;484996;110;380012;-54
2021/03/07 01:29:35;;;;;;;;;22.00;18.50;;;;;-3.06;79.48;100397.94;482444;111;381586;-54
2021/03/07 01:30:40;;;;;;;;;22.20;18.90;;;;;-3.05;79.77;100391.08;488662;110;383229;-54
2021/03/07 01:31:45;;;;;;;;;18.00;13.50;;;;;-3.08;79.85;100392.00;481456;112;379866;-53
2021/03/07 01:32:50;;;;;;;;;17.50;12.40;;;;;-3.09;80.01;100389.48;478228;112;391278;-54
2021/03/07 01:33:54;;;;;;;;;15.90;13.30;;;;;-3.06;79.70;100397.09;485926;110;385663;-53
2021/03/07 01:34:58;;;;;;;;;14.20;11.10;;;;;-3.06;80.09;100389.39;488571;110;378296;-53
2021/03/07 01:36:03;;;;;;;;;10.10;8.60;;;;;-3.10;80.23;100385.23;489260;110;374674;-54
2021/03/07 01:37:07;;;;;;;;;14.00;10.70;;;;;-3.07;80.17;100387.72;490271;110;383299;-53
2021/03/07 01:38:11;;;;;;;;;20.50;16.90;;;;;-3.03;80.27;100383.34;485265;110;382813;-54
2021/03/07 01:39:15;;;;;;;;;24.30;19.90;;;;;-3.03;80.27;100383.34;483904;110;390080;-54
2021/03/07 01:40:21;;;;;;;;;20.20;13.40;;;;;-3.00;79.69;100384.12;488709;110;380473;-54
2021/03/07 01:41:26;;;;;;;;;5.30;3.40;;;;;-2.96;79.76;100390.86;487470;110;372991;-53
2021/03/07 01:42:30;;;;;;;;;16.30;13.40;;;;;-2.96;79.76;100390.86;487549;110;381671;-52
2021/03/07 01:43:35;;;;;;;;;15.00;10.50;;;;;-3.02;80.08;100388.42;488511;110;378809;-54
2021/03/07 01:44:39;;;;;;;;;21.60;15.00;;;;;-3.00;80.09;100396.08;486073;110;382541;-54
2021/03/07 01:45:43;;;;;;;;;22.60;17.20;;;;;-3.00;80.09;100396.08;482585;111;382279;-53
2021/03/07 01:46:48;;;;;;;;;12.10;11.40;;;;;-2.96;79.86;100392.58;489086;110;385854;-53
2021/03/07 01:47:53;;;;;;;;;11.80;8.30;;;;;-3.00;80.05;100380.69;489822;110;376405;-52
2021/03/07 01:48:58;;;;;;;;;24.20;20.40;;;;;-2.97;80.06;100388.33;484764;111;388805;-55
2021/03/07 01:50:03;;;;;;;;;26.20;19.80;;;;;-2.93;79.86;100387.37;480148;112;383438;-56
2021/03/07 01:51:07;;;;;;;;;18.50;14.20;;;;;-3.00;80.00;100375.56;489690;110;378911;-54
2021/03/07 01:52:11;;;;;;;;;20.50;17.60;;;;;-3.00;80.00;100375.56;480280;112;383061;-55
2021/03/07 01:53:16;;;;;;;;;17.90;13.20;;;;;-3.00;80.24;100383.25;482720;112;379849;-54
2021/03/07 01:54:20;;;;;;;;;19.80;13.10;;;;;-3.01;80.17;100382.41;482622;112;382984;-52
2021/03/07 01:55:26;;;;;;;;;14.40;13.80;;;;;-3.01;80.22;100382.41;486921;110;389138;-54
2021/03/07 01:56:30;;;;;;;;;20.30;17.00;;;;;-2.93;79.94;100374.54;486141;110;383589;-55
2021/03/07 01:57:34;;;;;;;;;14.00;12.90;;;;;-2.96;79.90;100383.16;489016;110;387318;-53
2021/03/07 01:58:39;;;;;;;;;15.00;15.00;;;;;-2.94;79.86;100373.70;484926;111;378742;-54
2021/03/07 01:59:43;;;;;;;;;22.00;18.50;;;;;-3.00;80.24;100372.99;482177;112;389672;-56
2021/03/07 02:00:47;;;;;;;;;18.90;13.60;;;;;-2.99;80.29;100365.28;488255;110;380823;-53
2021/03/07 02:01:52;;;;;;;;;15.20;13.20;;;;;-3.00;80.63;100366.17;487190;110;378146;-56
2021/03/07 02:02:56;;;;;;;;;19.30;13.60;;;;;-3.01;80.55;100363.61;481650;112;390354;-56
2021/03/07 02:04:01;;;;;;;;;15.90;13.00;;;;;-3.01;80.55;100363.61;479015;113;380891;-54
2021/03/07 02:05:08;;;;;;;;;21.20;13.90;;;;;-2.92;79.78;100359.09;479067;113;378285;-54
2021/03/07 02:06:13;;;;;;;;;14.50;12.00;;;;;-2.92;79.78;100359.09;479569;112;377868;-55
2021/03/07 02:07:17;;;;;;;;;18.40;16.10;;;;;-2.88;79.82;100358.13;484005;110;388367;-55
2021/03/07 02:08:22;;;;;;;;;21.70;17.10;;;;;-2.87;79.50;100353.84;482076;110;381736;-55
2021/03/07 02:09:26;;;;;;;;;14.70;12.90;;;;;-2.93;80.22;100349.72;481065;110;385598;-54
2021/03/07 02:10:32;;;;;;;;;17.00;11.30;;;;;-2.92;80.11;100351.41;482113;112;378262;-53
2021/03/07 02:11:36;;;;;;;;;18.80;14.90;;;;;-2.97;80.17;100352.41;478566;112;381068;-54
2021/03/07 02:12:40;;;;;;;;;17.80;12.90;;;;;-2.91;80.24;100349.67;479086;112;385615;-53
2021/03/07 02:13:45;;;;;;;;;12.90;12.90;;;;;-2.94;80.22;100342.91;478664;112;380208;-54
2021/03/07 02:14:51;;;;;;;;;14.30;11.40;;;;;-2.94;80.22;100342.91;483969;110;378381;-53
2021/03/07 02:15:56;;;;;;;;;12.70;10.70;;;;;-2.89;80.02;100343.61;485295;110;377096;-54
2021/03/07 02:17:02;;;;;;;;;19.30;15.90;;;;;-2.95;80.31;100346.35;478743;113;388594;-54
2021/03/07 02:18:07;;;;;;;;;18.00;16.20;;;;;-2.93;80.38;100348.87;483715;110;380032;-53
2021/03/07 02:19:11;;;;;;;;;17.80;16.80;;;;;-3.00;80.51;100348.20;480581;111;387763;-54
2021/03/07 02:20:18;;;;;;;;;13.10;11.70;;;;;-2.94;80.22;100348.03;489116;110;376263;-53
2021/03/07 02:21:24;;;;;;;;;19.50;14.00;;;;;-2.93;80.11;100347.16;489238;110;380416;-53
2021/03/07 02:22:32;;;;;;;;;15.40;12.20;;;;;-2.96;80.42;100339.54;489342;110;380182;-54
2021/03/07 02:23:37;;;;;;;;;18.30;12.70;;;;;-3.00;80.52;100337.95;485773;110;387178;-53
2021/03/07 02:24:41;;;;;;;;;14.90;13.30;;;;;-2.97;80.59;100331.89;481786;111;381497;-54
2021/03/07 02:25:45;;;;;;;;;10.80;10.10;;;;;-2.96;80.17;100334.41;488135;110;375071;-54
2021/03/07 02:26:51;;;;;;;;;11.50;9.80;;;;;-2.96;80.17;100334.41;486512;111;383906;-53
2021/03/07 02:27:56;;;;;;;;;18.50;11.70;;;;;-2.96;80.40;100333.57;483794;112;379618;-53
2021/03/07 02:29:00;;;;;;;;;15.00;11.80;;;;;-2.95;80.51;100336.09;483131;113;385626;-54
2021/03/07 02:30:06;;;;;;;;;17.20;11.70;;;;;-2.95;80.37;100336.09;485331;111;379163;-54
2021/03/07 02:31:10;;;;;;;;;17.40;12.50;;;;;-2.99;80.50;100334.50;478624;113;381069;-54
2021/03/07 02:32:18;;;;;;;;;19.70;15.60;;;;;-2.94;80.40;100335.20;485856;110;381844;-53
2021/03/07 02:33:26;;;;;;;;;18.20;14.70;;;;;-2.94;80.40;100335.20;487437;110;381693;-55
2021/03/07 02:34:33;;;;;;;;;14.40;11.40;;;;;-2.84;79.81;100310.96;488599;110;385418;-53
2021/03/07 02:35:39;;;;;;;;;11.80;8.50;;;;;-2.84;79.81;100310.96;485413;111;384937;-53
2021/03/07 02:36:45;;;;;;;;;12.90;11.20;;;;;-2.84;79.58;100313.53;485757;110;378452;-53
2021/03/07 02:37:51;;;;;;;;;19.20;14.10;;;;;-2.78;79.60;100304.84;483298;111;388245;-51
2021/03/07 02:38:55;;;;;;;;;15.50;10.30;;;;;-2.78;79.60;100304.84;485288;111;376311;-54
2021/03/07 02:39:59;;;;;;;;;16.50;12.30;;;;;-2.78;79.47;100303.11;487744;110;379498;-53
2021/03/07 02:41:04;;;;;;;;;22.40;20.90;;;;;-2.76;79.23;100295.37;486044;110;381980;-54
2021/03/07 02:42:10;;;;;;;;;16.50;13.10;;;;;-2.78;79.31;100299.70;488542;110;387299;-55
2021/03/07 02:43:14;;;;;;;;;14.20;12.10;;;;;-2.78;78.96;100292.00;485638;110;386213;-54
2021/03/07 02:44:19;;;;;;;;;11.80;10.60;;;;;-2.70;79.01;100292.62;489246;110;376819;-54
2021/03/07 02:45:23;;;;;;;;;11.60;10.10;;;;;-2.70;79.01;100292.62;485597;110;383832;-53
2021/03/07 02:46:29;;;;;;;;;12.90;9.50;;;;;-2.77;79.11;100291.96;489790;110;376108;-53
2021/03/07 02:47:34;;;;;;;;;10.50;9.50;;;;;-2.74;79.01;100297.89;488681;110;380981;-53
2021/03/07 02:48:39;;;;;;;;;12.50;10.00;;;;;-2.74;79.02;100292.75;485531;111;377164;-52
2021/03/07 02:49:43;;;;;;;;;7.80;5.50;;;;;-2.74;78.91;100291.03;485874;110;374395;-53
2021/03/07 02:50:47;;;;;;;;;11.30;10.10;;;;;-2.76;79.01;100283.38;485147;111;376465;-53
2021/03/07 02:51:51;;;;;;;;;12.00;11.10;;;;;-2.76;79.01;100283.38;487123;110;378065;-54
2021/03/07 02:52:57;;;;;;;;;12.10;10.90;;;;;-2.69;78.72;100285.75;485442;111;377766;-54
2021/03/07 02:54:04;;;;;;;;;12.00;7.20;;;;;-2.66;78.54;100281.37;488050;110;376137;-53
2021/03/07 02:55:10;;;;;;;;;13.90;11.40;;;;;-2.68;78.46;100277.17;488051;110;375036;-54
2021/03/07 02:56:16;;;;;;;;;10.80;10.10;;;;;-2.67;78.52;100276.28;482759;110;376912;-53
2021/03/07 02:57:21;;;;;;;;;16.70;11.80;;;;;-2.69;78.53;100278.05;488447;110;377886;-52
2021/03/07 02:58:26;;;;;;;;;16.60;11.80;;;;;-2.66;78.63;100283.09;489092;110;380816;-52
2021/03/07 02:59:30;;;;;;;;;8.50;6.20;;;;;-2.66;78.63;100283.09;489500;110;382156;-52
2021/03/07 03:00:35;;;;;;;;;14.20;12.70;;;;;-2.64;78.11;100274.46;489234;110;388479;-54
2021/03/07 03:01:40;;;;;;;;;15.20;12.10;;;;;-2.61;77.96;100279.50;490248;110;378376;-54
2021/03/07 03:02:44;;;;;;;;;19.60;12.10;;;;;-2.62;77.70;100277.82;483338;111;379272;-53
2021/03/07 03:03:49;;;;;;;;;13.50;10.70;;;;;-2.61;77.86;100276.09;483578;111;375355;-53
2021/03/07 03:04:54;;;;;;;;;12.30;10.10;;;;;-2.61;77.86;100276.09;486575;110;376059;-54
2021/03/07 03:05:58;;;;;;;;;11.00;10.20;;;;;-2.57;77.50;100265.72;489226;110;381175;-53
2021/03/07 03:07:03;;;;;;;;;14.00;10.90;;;;;-2.67;77.89;100279.69;486073;110;381227;-54
2021/03/07 03:08:07;;;;;;;;;15.20;12.00;;;;;-2.67;77.89;100279.69;489009;110;380528;-54
2021/03/07 03:09:11;;;;;;;;;13.70;9.50;;;;;-2.63;77.43;100265.03;489005;110;376234;-55
2021/03/07 03:10:16;;;;;;;;;9.10;8.20;;;;;-2.56;77.05;100258.85;489004;110;373680;-54
2021/03/07 03:11:23;;;;;;;;;14.30;12.70;;;;;-2.56;77.05;100258.85;489117;110;377632;-54
2021/03/07 03:12:29;;;;;;;;;15.00;12.10;;;;;-2.65;77.37;100251.41;488736;110;380640;-54
2021/03/07 03:13:35;;;;;;;;;19.50;16.70;;;;;-2.65;77.37;100251.41;489538;110;381941;-54
2021/03/07 03:14:39;;;;;;;;;18.20;14.10;;;;;-2.63;77.25;100249.63;488883;110;381674;-54
2021/03/07 03:15:44;;;;;;;;;18.50;13.10;;;;;-2.58;76.93;100250.36;481937;111;380608;-54
2021/03/07 03:16:50;;;;;;;;;15.60;9.70;;;;;-2.63;77.11;100237.63;488647;110;378828;-52
2021/03/07 03:17:55;;;;;;;;;16.30;12.70;;;;;-2.63;77.11;100237.63;488167;110;381387;-55
2021/03/07 03:18:59;;;;;;;;;13.60;11.50;;;;;-2.65;76.78;100241.13;489855;110;386219;-53
2021/03/07 03:20:07;;;;;;;;;14.00;10.70;;;;;-2.63;76.71;100241.93;479793;112;383692;-54
2021/03/07 03:21:12;;;;;;;;;16.80;10.40;;;;;-2.64;76.59;100243.66;477107;113;386215;-55
2021/03/07 03:22:17;;;;;;;;;16.60;13.50;;;;;-2.61;76.46;100229.88;471437;114;381281;-53
2021/03/07 03:23:21;;;;;;;;;23.30;13.60;;;;;-2.61;76.46;100229.88;485391;112;381608;-52
2021/03/07 03:24:26;;;;;;;;;21.80;16.50;;;;;-2.58;76.19;100233.22;485029;112;382664;-50
2021/03/07 03:25:30;;;;;;;;;15.10;13.30;;;;;-2.59;76.12;100228.98;478711;112;382666;-53
2021/03/07 03:26:34;;;;;;;;;15.40;9.90;;;;;-2.52;75.76;100224.48;485739;112;379279;-53
2021/03/07 03:27:39;;;;;;;;;18.10;13.80;;;;;-2.56;76.00;100220.34;485212;112;379251;-53
2021/03/07 03:28:43;;;;;;;;;27.30;18.90;;;;;-2.56;76.00;100220.34;480118;112;384538;-53
2021/03/07 03:29:47;;;;;;;;;18.30;17.50;;;;;-2.49;75.65;100221.83;484946;112;382927;-53
2021/03/07 03:30:52;;;;;;;;;11.20;9.50;;;;;-2.49;75.65;100221.83;485611;112;382517;-54
2021/03/07 03:31:56;;;;;;;;;14.30;12.20;;;;;-2.47;75.34;100210.62;485020;112;380506;-55
2021/03/07 03:33:01;;;;;;;;;18.90;15.20;;;;;-2.48;75.06;100208.09;479929;112;381883;-54
2021/03/07 03:34:05;;;;;;;;;12.70;8.40;;;;;-2.48;75.06;100208.09;484144;112;375540;-54
2021/03/07 03:35:12;;;;;;;;;17.60;14.80;;;;;-2.48;75.24;100206.37;483943;112;388993;-53
2021/03/07 03:36:16;;;;;;;;;16.00;14.60;;;;;-2.51;75.38;100197.92;481258;112;381848;-51
2021/03/07 03:37:20;;;;;;;;;18.20;14.90;;;;;-2.50;75.49;100191.91;484669;112;386121;-54
2021/03/07 03:38:27;;;;;;;;;17.40;11.40;;;;;-2.51;75.22;100188.50;484346;112;387101;-54
2021/03/07 03:39:31;;;;;;;;;10.40;8.70;;;;;-2.51;75.04;100185.09;485351;111;375107;-54
2021/03/07 03:40:36;;;;;;;;;12.20;11.20;;;;;-2.50;74.88;100187.60;480747;112;374355;-53
2021/03/07 03:41:40;;;;;;;;;17.50;13.80;;;;;-2.41;74.62;100183.05;485424;112;386868;-53
2021/03/07 03:42:44;;;;;;;;;13.30;9.50;;;;;-2.42;74.42;100179.65;481509;112;376696;-54
2021/03/07 03:43:49;;;;;;;;;14.40;12.60;;;;;-2.40;74.28;100187.30;483608;112;384856;-54
2021/03/07 03:44:54;;;;;;;;;8.30;3.60;;;;;-2.40;74.28;100187.30;480830;112;375615;-53
2021/03/07 03:46:01;;;;;;;;;20.50;17.00;;;;;-2.38;74.32;100178.69;484755;112;382372;-55
2021/03/07 03:47:05;;;;;;;;;22.70;16.90;;;;;-2.39;74.25;100177.02;485005;112;381761;-53
2021/03/07 03:48:12;;;;;;;;;20.70;15.30;;;;;-2.43;74.21;100166.86;485197;112;388914;-54
2021/03/07 03:49:20;;;;;;;;;14.50;9.10;;;;;-2.39;74.27;100178.74;482365;112;377845;-54
2021/03/07 03:50:25;;;;;;;;;19.50;15.20;;;;;-2.33;74.07;100175.97;482751;112;381864;-54
2021/03/07 03:51:29;;;;;;;;;11.40;9.80;;;;;-2.37;74.13;100177.80;485530;112;376858;-52
2021/03/07 03:52:35;;;;;;;;;13.90;13.00;;;;;-2.36;73.83;100164.06;480198;112;378114;-53
2021/03/07 03:53:40;;;;;;;;;15.80;13.80;;;;;-2.34;73.94;100166.58;481916;113;389426;-55
2021/03/07 03:54:46;;;;;;;;;13.50;9.50;;;;;-2.34;73.94;100166.58;482158;112;376807;-55
2021/03/07 03:55:51;;;;;;;;;15.60;13.00;;;;;-2.37;73.94;100153.84;479286;112;378814;-55
2021/03/07 03:56:56;;;;;;;;;20.00;13.90;;;;;-2.35;74.06;100160.61;484761;112;380722;-56
2021/03/07 03:58:03;;;;;;;;;16.50;13.00;;;;;-2.39;73.89;100153.06;486147;112;385721;-55
2021/03/07 03:59:07;;;;;;;;;20.60;15.30;;;;;-2.39;73.89;100153.06;485876;111;381556;-53
2021/03/07 04:00:14;;;;;;;;;19.50;18.10;;;;;-2.32;73.64;100165.64;481758;112;386795;-54
2021/03/07 04:01:20;;;;;;;;;28.60;21.10;;;;;-2.32;73.84;100149.39;485103;112;383754;-51
2021/03/07 04:02:24;;;;;;;;;27.20;18.70;;;;;-2.31;73.69;100148.50;479419;112;382437;-53
2021/03/07 04:03:29;;;;;;;;;16.50;14.10;;;;;-2.30;73.45;100145.87;482524;112;389348;-53
2021/03/07 04:04:34;;;;;;;;;21.10;16.70;;;;;-2.26;73.43;100139.75;483891;112;383276;-54
2021/03/07 04:05:38;;;;;;;;;18.80;16.20;;;;;-2.32;73.63;100139.13;482090;112;387641;-51
2021/03/07 04:06:44;;;;;;;;;23.10;18.90;;;;;-2.29;73.60;100133.88;479647;112;389207;-54
2021/03/07 04:07:49;;;;;;;;;16.70;15.10;;;;;-2.30;73.59;100133.04;481190;112;381793;-52
2021/03/07 04:08:53;;;;;;;;;25.20;18.20;;;;;-2.23;73.46;100133.67;480665;113;382596;-54
2021/03/07 04:09:58;;;;;;;;;7.80;5.90;;;;;-2.32;73.67;100129.69;482473;112;374991;-54
2021/03/07 04:11:02;;;;;;;;;15.90;12.10;;;;;-2.32;73.67;100129.69;484922;112;381511;-54
2021/03/07 04:12:08;;;;;;;;;21.30;19.20;;;;;-2.33;73.65;100124.60;480176;112;382606;-55
2021/03/07 04:13:13;;;;;;;;;17.00;15.60;;;;;-2.28;73.43;100126.12;481216;112;381070;-54
2021/03/07 04:14:17;;;;;;;;;17.50;15.10;;;;;-2.28;73.43;100126.12;482739;112;387947;-55
2021/03/07 04:15:22;;;;;;;;;15.10;15.10;;;;;-2.28;73.54;100120.98;481819;112;379443;-53
2021/03/07 04:16:27;;;;;;;;;20.50;17.60;;;;;-2.28;73.54;100120.98;485530;112;388722;-55
2021/03/07 04:17:32;;;;;;;;;19.10;14.00;;;;;-2.29;73.46;100119.30;485826;112;380025;-51
2021/03/07 04:18:36;;;;;;;;;12.90;10.20;;;;;-2.17;73.17;100118.91;485708;112;383976;-54
2021/03/07 04:19:40;;;;;;;;;23.00;16.80;;;;;-2.17;73.17;100118.91;484867;112;388589;-53
2021/03/07 04:20:45;;;;;;;;;17.30;12.80;;;;;-2.24;73.17;100104.58;484766;110;378465;-53
2021/03/07 04:21:49;;;;;;;;;28.50;20.60;;;;;-2.23;73.23;100101.11;487790;110;381677;-55
2021/03/07 04:22:54;;;;;;;;;24.70;16.70;;;;;-2.23;73.23;100101.11;488917;110;381167;-52
2021/03/07 04:23:58;;;;;;;;;19.70;15.10;;;;;-2.28;73.21;100105.57;487434;110;388393;-54
2021/03/07 04:25:04;;;;;;;;;16.30;13.40;;;;;-2.23;73.12;100097.70;483976;110;379354;-54
2021/03/07 04:26:08;;;;;;;;;15.10;9.80;;;;;-2.23;73.12;100097.70;486986;110;384426;-53
2021/03/07 04:27:13;;;;;;;;;13.40;11.90;;;;;-2.25;73.28;100094.34;481574;112;377701;-52
2021/03/07 04:28:17;;;;;;;;;18.50;14.60;;;;;-2.21;73.15;100088.22;486215;110;378109;-54
2021/03/07 04:29:21;;;;;;;;;18.00;16.50;;;;;-2.18;73.05;100090.70;484780;110;382050;-55
2021/03/07 04:30:27;;;;;;;;;18.40;14.20;;;;;-2.08;72.94;100084.34;484595;110;384965;-55
2021/03/07 04:31:32;;;;;;;;;20.30;16.80;;;;;-2.12;72.82;100082.78;487480;110;381969;-54
2021/03/07 04:32:36;;;;;;;;;17.10;16.60;;;;;-2.14;72.69;100074.29;480513;112;382194;-53
2021/03/07 04:33:41;;;;;;;;;23.70;20.10;;;;;-2.14;72.69;100074.29;475072;114;390055;-53
2021/03/07 04:34:45;;;;;;;;;23.00;15.70;;;;;-2.11;72.79;100078.48;484695;112;388235;-54
2021/03/07 04:35:50;;;;;;;;;17.00;16.30;;;;;-2.16;72.62;100079.48;486208;110;389294;-55
2021/03/07 04:36:54;;;;;;;;;19.50;17.00;;;;;-3.50;72.59;99857.29;487500;110;382942;-53
2021/03/07 04:37:59;;;;;;;;;13.20;13.20;;;;;-2.13;72.80;100070.83;487421;110;378298;-53
2021/03/07 04:39:03;;;;;;;;;21.70;17.60;;;;;-2.13;72.80;100070.83;487303;110;382539;-53
2021/03/07 04:40:13;;;;;;;;;22.70;14.90;;;;;-2.16;72.88;100061.50;487190;110;381595;-53
2021/03/07 04:41:17;;;;;;;;;31.70;24.90;;;;;-2.12;72.76;100066.53;482042;112;392614;-53
2021/03/07 04:42:21;;;;;;;;;21.90;19.80;;;;;-2.12;72.65;100059.66;487346;110;382405;-54
2021/03/07 04:43:26;;;;;;;;;20.30;17.40;;;;;-2.09;72.51;100064.69;487433;110;382485;-54
2021/03/07 04:44:30;;;;;;;;;20.80;18.30;;;;;-2.02;72.21;100060.16;488649;110;383761;-54
2021/03/07 04:45:34;;;;;;;;;23.50;20.10;;;;;-1.98;72.18;100061.76;483133;110;382087;-54
2021/03/07 04:46:39;;;;;;;;;16.60;13.90;;;;;-2.03;72.19;100055.92;488517;110;381681;-54
2021/03/07 04:47:43;;;;;;;;;19.50;16.80;;;;;-2.03;72.19;100055.92;484595;110;386188;-54
2021/03/07 04:48:48;;;;;;;;;19.10;15.20;;;;;-1.98;72.22;100052.31;486059;110;378026;-53
2021/03/07 04:49:52;;;;;;;;;12.70;10.90;;;;;-2.00;72.33;100061.81;487774;110;375362;-54
2021/03/07 04:50:57;;;;;;;;;19.10;15.80;;;;;-1.96;72.09;100063.38;482281;112;389803;-59